Time;durP1;ratioP1;P1;durP2;ratioP2;P2;SDS_P1;SDS_P2;PMS_P1;PMS_P2;Temp;Humidity;BMP_temperature;BMP_pressure;BME280_temperature;BME280_humidity;BME280_pressure;Samples;Min_cycle;Max_cycle;Signal;HPM_P1;HPM_P2
2022/12/23 00:01:14;;;;;;;50.10;16.02;;;;;;;9.99;100.00;100432.06;5206859;28;20018;-80
2022/12/23 00:03:44;;;;;;;45.05;15.32;;;;;;;10.02;100.00;100437.94;5207016;28;20033;-80
2022/12/23 00:06:16;;;;;;;44.65;15.88;;;;;;;10.08;100.00;100434.53;5206073;28;20028;-80
2022/12/23 00:08:46;;;;;;;35.58;15.02;;;;;;;10.08;100.00;100431.03;5205856;28;20375;-79
2022/12/23 00:11:18;;;;;;;41.50;13.63;;;;;;;10.10;100.00;100434.41;5206660;28;20032;-79
2022/12/23 00:16:38;;;;;;;53.38;13.75;;;;;;;10.05;100.00;100434.09;5199832;28;20030;-80
2022/12/23 00:19:08;;;;;;;37.53;13.68;;;;;;;10.01;100.00;100446.97;5203303;28;20378;-80
2022/12/23 00:21:39;;;;;;;41.63;14.23;;;;;;;9.99;100.00;100454.38;5207140;28;20019;-80
2022/12/23 00:24:10;;;;;;;40.03;11.77;;;;;;;10.01;100.00;100443.47;5207226;28;20381;-80
2022/12/23 00:26:41;;;;;;;36.75;13.50;;;;;;;10.01;100.00;100451.50;5207346;28;20609;-80
2022/12/23 00:29:11;;;;;;;38.28;10.77;;;;;;;10.00;100.00;100457.88;5207355;28;20037;-80
2022/12/23 00:31:42;;;;;;;35.63;11.68;;;;;;;9.96;100.00;100462.75;5206936;28;20026;-79
2022/12/23 00:34:12;;;;;;;38.00;10.38;;;;;;;9.93;100.00;100460.38;5207463;28;20026;-79
2022/12/23 00:36:43;;;;;;;34.33;9.73;;;;;;;9.95;100.00;100466.44;5206499;28;20025;-79
2022/12/23 00:44:51;;;;;;;32.28;8.52;;;;;;;9.93;100.00;100460.38;5207137;28;20040;-79
2022/12/23 00:50:10;;;;;;;27.73;7.70;;;;;;;9.84;100.00;100461.44;5207497;28;20093;-79
2022/12/23 00:52:40;;;;;;;26.42;7.22;;;;;;;9.81;100.00;100456.41;5205866;28;20029;-79
2022/12/23 00:55:11;;;;;;;31.75;8.10;;;;;;;9.74;100.00;100461.63;5205692;28;20025;-79
2022/12/23 00:57:41;;;;;;;26.42;7.50;;;;;;;9.72;100.00;100462.78;5204528;28;20506;-79
2022/12/23 01:00:12;;;;;;;29.60;7.57;;;;;;;9.70;100.00;100470.16;5205608;28;20025;-79
2022/12/23 01:05:37;;;;;;;28.17;7.50;;;;;;;9.65;100.00;100459.97;5205906;28;20082;-79
2022/12/23 01:08:10;;;;;;;24.48;6.07;;;;;;;9.64;100.00;100477.03;5204535;28;20422;-79
2022/12/23 01:10:41;;;;;;;27.98;7.22;;;;;;;9.66;100.00;100480.38;5205528;28;20028;-79
2022/12/23 01:13:11;;;;;;;27.52;6.25;;;;;;;9.69;100.00;100480.06;5205604;28;20037;-79
2022/12/23 01:15:42;;;;;;;27.02;7.20;;;;;;;9.76;100.00;100494.44;5205830;28;20501;-79
2022/12/23 01:18:12;;;;;;;32.35;7.22;;;;;;;9.82;100.00;100501.78;5205894;28;20056;-79
2022/12/23 01:20:43;;;;;;;19.52;6.22;;;;;;;9.85;100.00;100495.25;5211147;28;20064;-79
2022/12/23 01:23:13;;;;;;;28.15;6.32;;;;;;;9.92;100.00;100498.09;5204481;28;20033;-79
2022/12/23 01:25:44;;;;;;;20.70;5.90;;;;;;;9.94;100.00;100496.06;5205808;28;20075;-79
2022/12/23 01:28:14;;;;;;;17.15;5.97;;;;;;;9.85;100.00;100503.28;5203459;28;20071;-79
2022/12/23 01:30:45;;;;;;;18.17;5.30;;;;;;;9.88;100.00;100504.78;5205021;28;20033;-79
2022/12/23 01:33:15;;;;;;;19.27;5.55;;;;;;;9.94;100.00;100507.66;5205836;28;20017;-79
2022/12/23 01:35:46;;;;;;;17.88;4.82;;;;;;;9.92;100.00;100517.69;5206101;28;20521;-79
2022/12/23 01:38:17;;;;;;;22.17;5.15;;;;;;;9.94;100.00;100518.38;5205960;28;20025;-79
2022/12/23 01:40:47;;;;;;;18.02;4.35;;;;;;;9.92;100.00;100528.41;5205587;28;20072;-79
2022/12/23 01:43:19;;;;;;;22.33;4.78;;;;;;;9.91;100.00;100537.44;5205777;28;20089;-79
2022/12/23 01:45:49;;;;;;;11.82;4.25;;;;;;;9.92;100.00;100533.75;5205386;28;20152;-79
2022/12/23 01:48:24;;;;;;;16.13;3.90;;;;;;;9.94;100.00;100526.41;5206053;28;20116;-79
2022/12/23 01:50:58;;;;;;;;;;;;;;;9.96;100.00;100531.59;5205673;28;20029;-79
2022/12/23 01:53:32;;;;;;;20.73;4.88;;;;;;;9.96;100.00;100535.09;5205912;28;19913;-79
2022/12/23 01:56:14;;;;;;;16.05;3.83;;;;;;;9.94;100.00;100533.56;5204797;28;20027;-79
2022/12/23 01:58:49;;;;;;;12.93;3.22;;;;;;;9.93;100.00;100522.03;5205763;28;20017;-79
2022/12/23 02:04:14;;;;;;;19.10;3.85;;;;;;;9.91;100.00;100529.41;5205789;28;20021;-79
2022/12/23 02:09:50;;;;;;;18.40;3.58;;;;;;;9.87;100.00;100530.75;5205963;28;20030;-79
2022/12/23 02:12:40;;;;;;;13.95;4.82;;;;;;;9.86;100.00;100543.31;5206073;28;20029;-79
2022/12/23 02:18:31;;;;;;;16.38;3.88;;;;;;;9.79;100.00;100560.25;5206432;28;20025;-79
2022/12/23 02:21:09;;;;;;;24.20;3.95;;;;;;;9.80;100.00;100565.41;5211950;28;20501;-79
2022/12/23 02:23:58;;;;;;;20.40;4.13;;;;;;;9.78;100.00;100562.06;5206522;28;20025;-79
2022/12/23 02:26:29;;;;;;;17.67;4.90;;;;;;;9.82;100.00;100578.66;5206507;28;20040;-79
2022/12/23 02:29:18;;;;;;;25.70;4.68;;;;;;;9.87;100.00;100573.63;5206044;28;20332;-79
2022/12/23 02:32:00;;;;;;;17.60;4.28;;;;;;;9.88;100.00;100575.28;5204637;28;20079;-79
2022/12/23 02:34:48;;;;;;;17.00;4.70;;;;;;;9.88;100.00;100586.00;5206072;28;20796;-79
2022/12/23 02:37:31;;;;;;;19.08;5.00;;;;;;;9.90;100.00;100583.19;5206427;28;20033;-79
2022/12/23 02:40:11;;;;;;;23.63;4.50;;;;;;;9.94;100.00;100595.22;5207613;28;20051;-79
2022/12/23 02:42:54;;;;;;;19.50;4.00;;;;;;;9.96;100.00;100599.41;5210784;28;20017;-79
2022/12/23 02:45:33;;;;;;;19.23;4.65;;;;;;;10.01;100.00;100598.91;5210435;28;20030;-80
2022/12/23 02:48:10;;;;;;;24.63;4.63;;;;;;;9.98;100.00;100604.59;5210605;28;20032;-79
2022/12/23 02:50:44;;;;;;;11.85;4.38;;;;;;;9.96;100.00;100598.56;5209919;28;20433;-79
2022/12/23 02:53:26;;;;;;;17.55;4.07;;;;;;;9.96;100.00;100602.09;5210127;28;20085;-79
2022/12/23 02:55:59;;;;;;;18.10;4.97;;;;;;;9.96;100.00;100611.97;5210219;28;20029;-79
2022/12/23 02:58:35;;;;;;;17.50;4.38;;;;;;;9.91;100.00;100615.16;5210024;28;20087;-79
2022/12/23 03:01:08;;;;;;;19.52;4.55;;;;;;;9.96;100.00;100620.00;5209661;28;20409;-79
2022/12/23 03:03:40;;;;;;;18.88;4.45;;;;;;;10.00;100.00;100618.69;5209206;28;20505;-79
2022/12/23 03:06:22;;;;;;;18.42;4.47;;;;;;;9.97;100.00;100611.78;5210331;28;20025;-79
2022/12/23 03:08:57;;;;;;;18.90;4.43;;;;;;;10.01;100.00;100612.31;5209109;28;20017;-79
2022/12/23 03:11:49;;;;;;;20.65;3.97;;;;;;;9.99;100.00;100615.16;5209031;28;20030;-79
2022/12/23 03:14:46;;;;;;;14.77;3.92;;;;;;;9.96;100.00;100602.09;5209963;28;20018;-79
2022/12/23 03:17:50;;;;;;;22.70;4.38;;;;;;;9.94;100.00;100606.78;5209394;28;20553;-78
2022/12/23 03:20:51;;;;;;;25.30;4.50;;;;;;;9.86;100.00;100593.38;5212101;28;20100;-79
2022/12/23 03:23:42;;;;;;;19.95;4.05;;;;;;;9.84;100.00;100593.56;5209281;28;20032;-79
2022/12/23 03:26:18;;;;;;;20.55;4.35;;;;;;;9.89;100.00;100585.03;5209370;28;20087;-79
2022/12/23 03:28:55;;;;;;;14.48;3.60;;;;;;;9.91;100.00;100591.03;5208816;28;20029;-79
2022/12/23 03:31:29;;;;;;;23.08;4.72;;;;;;;9.85;100.00;100586.34;5211193;28;20025;-79
2022/12/23 03:34:05;;;;;;;15.95;3.40;;;;;;;9.78;100.00;100580.81;5212286;28;20053;-79
2022/12/23 03:36:48;;;;;;;16.40;4.20;;;;;;;9.73;100.00;100582.31;5212120;28;20029;-79
2022/12/23 03:39:22;;;;;;;17.85;4.40;;;;;;;9.71;100.00;100585.19;5210950;28;20494;-79
2022/12/23 03:41:59;;;;;;;21.50;5.13;;;;;;;9.66;100.00;100568.78;5211957;28;20073;-79
2022/12/23 03:44:37;;;;;;;19.60;4.18;;;;;;;9.63;100.00;100579.81;5211651;28;20064;-79
2022/12/23 03:47:17;;;;;;;27.15;5.20;;;;;;;9.62;100.00;100588.00;5211068;28;20045;-79
2022/12/23 03:50:02;;;;;;;21.60;4.47;;;;;;;9.63;100.00;100582.47;5212327;28;20032;-79
2022/12/23 03:52:38;;;;;;;26.80;6.18;;;;;;;9.68;100.00;100592.69;5211749;28;20026;-79
2022/12/23 03:55:17;;;;;;;17.73;4.90;;;;;;;9.64;100.00;100586.84;5212123;28;20065;-79
2022/12/23 03:58:16;;;;;;;25.83;4.82;;;;;;;9.58;100.00;100591.00;5212479;28;20052;-79
2022/12/23 04:00:56;;;;;;;26.60;5.78;;;;;;;9.61;100.00;100603.25;5192677;28;20038;-79
2022/12/23 04:03:36;;;;;;;17.20;4.95;;;;;;;9.63;100.00;100597.72;5212412;28;20402;-79
2022/12/23 04:06:12;;;;;;;27.17;5.28;;;;;;;9.62;100.00;100601.41;5212321;28;20033;-79
2022/12/23 04:08:45;;;;;;;19.35;4.90;;;;;;;9.64;100.00;100615.44;5211753;28;20056;-79
2022/12/23 04:11:16;;;;;;;23.02;5.38;;;;;;;9.65;100.00;100620.66;5207661;28;20026;-79
2022/12/23 04:13:47;;;;;;;24.65;4.70;;;;;;;9.63;100.00;100632.53;5206994;28;20102;-79
2022/12/23 04:16:17;;;;;;;20.48;5.30;;;;;;;9.65;100.00;100628.72;5207760;28;20041;-79
2022/12/23 04:18:48;;;;;;;18.95;4.78;;;;;;;9.64;100.00;100632.41;5209180;28;20462;-79
2022/12/23 04:21:18;;;;;;;19.35;5.03;;;;;;;9.60;100.00;100628.38;5211860;28;20081;-79
2022/12/23 04:23:49;;;;;;;19.50;4.35;;;;;;;9.57;100.00;100623.31;5207533;28;20029;-79
2022/12/23 04:26:19;;;;;;;25.73;5.18;;;;;;;9.58;100.00;100633.88;5207526;28;20049;-79
2022/12/23 04:28:49;;;;;;;19.70;4.47;;;;;;;9.59;100.00;100634.72;5206388;28;20049;-79
2022/12/23 04:31:20;;;;;;;16.42;4.97;;;;;;;9.58;100.00;100636.53;5206273;28;20033;-79
2022/12/23 04:33:50;;;;;;;24.90;5.70;;;;;;;9.58;100.00;100623.16;5207295;28;20028;-79
2022/12/23 04:36:21;;;;;;;24.95;5.35;;;;;;;9.56;100.00;100630.53;5207564;28;20026;-79
2022/12/23 04:38:51;;;;;;;19.92;4.95;;;;;;;9.56;100.00;100629.69;5207419;28;20053;-79
2022/12/23 04:41:23;;;;;;;22.83;5.43;;;;;;;9.56;100.00;100629.69;5207324;28;20083;-79
2022/12/23 04:43:53;;;;;;;19.58;5.30;;;;;;;9.54;100.00;100627.19;5207706;28;20063;-79
2022/12/23 04:46:24;;;;;;;19.83;4.80;;;;;;;9.52;100.00;100617.63;5207465;28;20112;-79
2022/12/23 04:48:54;;;;;;;24.75;5.15;;;;;;;9.53;100.00;100625.47;5205689;28;20029;-79
2022/12/23 04:51:25;;;;;;;22.92;5.03;;;;;;;9.54;100.00;100631.72;5205996;28;20036;-79
2022/12/23 04:53:56;;;;;;;21.50;5.20;;;;;;;9.53;100.00;100628.16;5204748;28;20056;-79
2022/12/23 04:56:26;;;;;;;19.88;4.78;;;;;;;9.53;100.00;100625.47;5204951;28;20478;-78
2022/12/23 04:58:56;;;;;;;25.17;5.90;;;;;;;9.54;100.00;100623.69;5205919;28;20040;-79
2022/12/23 05:01:27;;;;;;;29.70;5.55;;;;;;;9.51;100.00;100619.47;5205888;28;20042;-79
2022/12/23 05:03:58;;;;;;;20.63;5.47;;;;;;;9.51;100.00;100618.63;5205934;28;20108;-78
2022/12/23 05:06:28;;;;;;;28.38;5.85;;;;;;;9.51;100.00;100624.00;5205148;28;20036;-79
2022/12/23 05:08:59;;;;;;;27.98;5.18;;;;;;;9.52;100.00;100617.63;5206574;28;20029;-79
2022/12/23 05:11:29;;;;;;;25.50;4.93;;;;;;;9.54;100.00;100629.88;5206280;28;20025;-79
2022/12/23 05:14:00;;;;;;;14.93;4.20;;;;;;;9.59;100.00;100637.41;5206187;28;20021;-79
2022/12/23 05:16:30;;;;;;;27.70;5.85;;;;;;;9.61;100.00;100640.75;5205092;28;20025;-79
2022/12/23 05:19:01;;;;;;;19.77;4.82;;;;;;;9.62;100.00;100641.59;5209134;28;20394;-79
2022/12/23 05:21:31;;;;;;;16.52;4.97;;;;;;;9.60;100.00;100631.03;5208029;28;20105;-79
2022/12/23 05:24:02;;;;;;;20.55;4.10;;;;;;;9.60;100.00;100639.91;5206002;28;20026;-79
2022/12/23 05:26:32;;;;;;;30.33;7.60;;;;;;;9.64;100.00;100644.91;5205553;28;20450;-79
2022/12/23 05:29:04;;;;;;;17.40;4.57;;;;;;;9.62;100.00;100637.06;5205814;28;20383;-79
2022/12/23 05:31:34;;;;;;;18.25;5.18;;;;;;;9.58;100.00;100628.50;5205897;28;20017;-79
2022/12/23 05:34:05;;;;;;;29.85;5.30;;;;;;;9.59;100.00;100624.84;5205857;28;20032;-79
2022/12/23 05:36:35;;;;;;;17.52;4.70;;;;;;;9.58;100.00;100630.34;5205789;28;20029;-79
2022/12/23 05:39:06;;;;;;;25.58;6.03;;;;;;;9.57;100.00;100628.69;5206155;28;20029;-79
2022/12/23 05:41:36;;;;;;;22.60;4.72;;;;;;;9.58;100.00;100625.81;5205827;28;20018;-79
2022/12/23 05:44:07;;;;;;;20.73;5.38;;;;;;;9.58;100.00;100625.81;5205384;28;20068;-79
2022/12/23 05:46:37;;;;;;;26.42;5.95;;;;;;;9.62;100.00;100628.19;5205830;28;20071;-79
2022/12/23 05:49:07;;;;;;;20.50;5.82;;;;;;;9.63;100.00;100625.34;5205648;28;20032;-79
2022/12/23 05:51:38;;;;;;;20.60;5.65;;;;;;;9.60;100.00;100613.13;5206207;28;20104;-79
2022/12/23 05:54:08;;;;;;;21.58;5.78;;;;;;;9.59;100.00;100605.28;5206379;28;20450;-79
2022/12/23 05:56:39;;;;;;;21.95;6.85;;;;;;;9.50;100.00;100596.38;5206210;28;20026;-79
2022/12/23 05:59:10;;;;;;;27.20;7.50;;;;;;;9.48;100.00;100592.19;5206171;28;20028;-79
2022/12/23 06:01:40;;;;;;;26.33;8.77;;;;;;;9.46;100.00;100589.66;5206348;28;20448;-79
2022/12/23 06:04:10;;;;;;;20.83;6.63;;;;;;;9.44;100.00;100580.97;5207774;28;20025;-79
2022/12/23 06:06:41;;;;;;;20.05;6.00;;;;;;;9.44;100.00;100585.47;5207006;28;20256;-79
2022/12/23 06:09:11;;;;;;;18.17;5.20;;;;;;;9.41;100.00;100581.31;5206677;28;20021;-79
2022/12/23 06:11:42;;;;;;;26.75;5.82;;;;;;;9.40;100.00;100593.00;5206453;28;20560;-82
2022/12/23 06:14:12;;;;;;;22.67;7.55;;;;;;;9.40;100.00;100597.53;5203372;28;20385;-82
2022/12/23 06:16:43;;;;;;;20.85;6.07;;;;;;;9.40;100.00;100589.50;5221461;28;20056;-81
2022/12/23 06:19:13;;;;;;;23.00;6.55;;;;;;;9.41;100.00;100588.50;5214328;28;20017;-81
2022/12/23 06:21:44;;;;;;;23.00;6.85;;;;;;;9.38;100.00;100600.34;5208983;28;20538;-80
2022/12/23 06:24:14;;;;;;;25.33;7.35;;;;;;;9.44;100.00;100596.19;5206570;28;20056;-77
2022/12/23 06:26:45;;;;;;;25.00;7.68;;;;;;;9.43;100.00;100594.50;5214142;28;20033;-79
2022/12/23 06:29:15;;;;;;;28.50;8.68;;;;;;;9.41;100.00;100605.41;5215705;28;20480;-80
2022/12/23 06:31:46;;;;;;;30.33;8.95;;;;;;;9.47;100.00;100609.25;5209303;28;20018;-80
2022/12/23 06:34:16;;;;;;;26.50;9.10;;;;;;;9.48;100.00;100617.09;5211212;28;20025;-80
2022/12/23 06:36:47;;;;;;;30.13;7.88;;;;;;;9.51;100.00;100619.47;5208978;28;20025;-79
2022/12/23 06:39:18;;;;;;;28.17;8.32;;;;;;;9.53;100.00;100613.94;5210748;28;20557;-79
2022/12/23 06:41:49;;;;;;;28.17;9.07;;;;;;;9.53;100.00;100612.09;5208485;28;20025;-78
2022/12/23 06:44:19;;;;;;;28.85;8.65;;;;;;;9.53;100.00;100612.09;5206449;28;20037;-78
2022/12/23 06:46:50;;;;;;;34.78;9.73;;;;;;;9.52;100.00;100610.44;5196647;28;20101;-78
2022/12/23 06:49:21;;;;;;;22.05;7.35;;;;;;;9.54;100.00;100599.56;5208036;28;20037;-78
2022/12/23 06:51:51;;;;;;;21.50;7.68;;;;;;;9.53;100.00;100603.22;5198326;28;20085;-79
2022/12/23 06:54:22;;;;;;;19.92;7.47;;;;;;;9.52;100.00;100613.09;5205639;28;20052;-80
2022/12/23 06:56:52;;;;;;;22.42;7.50;;;;;;;9.52;100.00;100626.50;5204337;28;20029;-80
2022/12/23 06:59:22;;;;;;;18.58;7.88;;;;;;;9.51;100.00;100605.25;5204209;28;20117;-80
2022/12/23 07:01:53;;;;;;;28.08;9.02;;;;;;;9.48;100.00;100616.28;5204884;28;20018;-80
2022/12/23 07:04:23;;;;;;;31.08;9.27;;;;;;;9.46;100.00;100608.41;5204021;28;20522;-79
2022/12/23 07:06:54;;;;;;;17.73;8.48;;;;;;;9.45;100.00;100600.56;5205041;28;20025;-80
2022/12/23 07:09:25;;;;;;;26.55;9.32;;;;;;;9.45;100.00;100605.91;5204246;28;20478;-80
2022/12/23 07:11:55;;;;;;;23.92;9.70;;;;;;;9.43;100.00;100599.88;5204559;28;20032;-79
2022/12/23 07:14:26;;;;;;;27.73;7.97;;;;;;;9.40;100.00;100611.75;5204367;28;20038;-80
2022/12/23 07:16:56;;;;;;;25.08;7.18;;;;;;;9.41;100.00;100608.06;5204513;28;20480;-80
2022/12/23 07:19:27;;;;;;;23.52;7.57;;;;;;;9.34;100.00;100617.78;5211587;28;20120;-80
2022/12/23 07:21:57;;;;;;;29.17;8.10;;;;;;;9.31;100.00;100620.78;5204729;28;20014;-80
2022/12/23 07:24:28;;;;;;;25.83;9.85;;;;;;;9.27;100.00;100619.41;5204955;28;20032;-79
2022/12/23 07:26:58;;;;;;;22.27;9.13;;;;;;;9.21;100.00;100617.41;5207353;28;20041;-79
2022/12/23 07:29:29;;;;;;;23.90;9.32;;;;;;;9.21;100.00;100604.00;5207260;28;20061;-80
2022/12/23 07:32:00;;;;;;;23.42;9.25;;;;;;;9.21;100.00;100604.00;5207611;28;20415;-80
2022/12/23 07:34:31;;;;;;;22.95;8.70;;;;;;;9.15;100.00;100599.31;5208184;28;20024;-80
2022/12/23 07:37:01;;;;;;;22.95;8.35;;;;;;;9.16;100.00;100599.16;5207151;28;20029;-84
2022/12/23 07:39:33;;;;;;;25.17;8.20;;;;;;;9.15;100.00;100589.44;5211918;28;20539;-80
2022/12/23 07:42:03;;;;;;;25.98;9.00;;;;;;;9.13;100.00;100577.22;5212564;28;20029;-80
2022/12/23 07:44:34;;;;;;;29.15;9.35;;;;;;;9.08;100.00;100583.88;5211116;28;20159;-80
2022/12/23 07:47:04;;;;;;;22.35;9.07;;;;;;;9.05;100.00;100584.22;5211430;28;20028;-79
2022/12/23 07:49:35;;;;;;;21.00;7.90;;;;;;;8.97;100.00;100586.03;5212293;28;20028;-79
2022/12/23 07:52:05;;;;;;;20.38;7.85;;;;;;;8.94;100.00;100589.88;5211447;28;20498;-80
2022/12/23 07:54:36;;;;;;;27.88;9.38;;;;;;;8.88;100.00;100587.84;5212346;28;20031;-80
2022/12/23 07:57:06;;;;;;;21.02;8.63;;;;;;;8.85;100.00;100598.03;5211825;28;20079;-80
2022/12/23 07:59:37;;;;;;;29.35;8.80;;;;;;;8.83;100.00;100592.84;5212183;28;20018;-80
2022/12/23 08:02:09;;;;;;;28.90;8.25;;;;;;;8.93;100.00;100603.41;5210176;28;20485;-80
2022/12/23 08:04:40;;;;;;;25.45;8.45;;;;;;;8.93;100.00;100601.56;5212398;28;20063;-80
2022/12/23 08:07:10;;;;;;;19.70;7.57;;;;;;;8.97;100.00;100599.41;5211712;28;20061;-80
2022/12/23 08:09:41;;;;;;;27.58;8.10;;;;;;;8.92;100.00;100597.22;5209363;28;20029;-79
2022/12/23 08:12:11;;;;;;;29.40;8.27;;;;;;;8.92;100.00;100594.53;5206112;28;20029;-80
2022/12/23 08:14:41;;;;;;;24.50;8.10;;;;;;;8.88;100.00;100587.84;5206662;28;20117;-79
2022/12/23 08:17:12;;;;;;;21.27;8.20;;;;;;;8.82;100.00;100581.28;5207308;28;20049;-79
2022/12/23 08:19:42;;;;;;;23.45;8.55;;;;;;;8.79;100.00;100578.13;5214928;28;20022;-80
2022/12/23 08:22:13;;;;;;;31.10;9.13;;;;;;;8.80;100.00;100564.59;5206876;28;20021;-81
2022/12/23 08:24:43;;;;;;;34.70;8.63;;;;;;;8.78;100.00;100565.72;5207340;28;20524;-81
2022/12/23 08:27:15;;;;;;;22.85;8.02;;;;;;;8.86;100.00;100564.94;5205504;28;20065;-81
2022/12/23 08:29:45;;;;;;;28.02;8.20;;;;;;;8.82;100.00;100559.06;5206051;28;20075;-81
2022/12/23 08:32:16;;;;;;;26.80;8.98;;;;;;;8.83;100.00;100563.41;5205222;28;20034;-81
2022/12/23 08:34:46;;;;;;;28.63;8.65;;;;;;;8.81;100.00;100555.56;5205693;28;20025;-80
2022/12/23 08:37:17;;;;;;;29.80;9.25;;;;;;;8.85;100.00;100553.41;5205591;28;20100;-81
2022/12/23 08:39:47;;;;;;;31.83;8.38;;;;;;;8.89;100.00;100545.91;5205861;28;20033;-81
2022/12/23 08:42:17;;;;;;;34.92;8.57;;;;;;;8.92;100.00;100556.25;5204544;28;20020;-81
2022/12/23 08:44:48;;;;;;;28.63;7.50;;;;;;;8.94;100.00;100541.72;5208338;28;20547;-81
2022/12/23 08:47:18;;;;;;;29.23;8.52;;;;;;;8.92;100.00;100538.38;5204048;28;20451;-81
2022/12/23 08:49:49;;;;;;;28.20;8.32;;;;;;;8.95;100.00;100540.72;5204096;28;20113;-80
2022/12/23 08:52:19;;;;;;;27.73;8.00;;;;;;;8.98;100.00;100527.00;5203646;28;20076;-80
2022/12/23 08:54:50;;;;;;;27.27;8.10;;;;;;;8.94;100.00;100517.66;5205160;28;20045;-80
2022/12/23 08:57:20;;;;;;;29.45;9.30;;;;;;;8.98;100.00;100507.44;5205135;28;20025;-80
2022/12/23 08:59:51;;;;;;;30.98;8.90;;;;;;;9.00;100.00;100502.78;5204006;28;20021;-80
2022/12/23 09:02:21;;;;;;;26.10;8.52;;;;;;;9.03;100.00;100505.94;5204773;28;20028;-79
2022/12/23 09:04:51;;;;;;;19.35;8.00;;;;;;;9.01;100.00;100488.41;5205404;28;20116;-83
2022/12/23 09:07:22;;;;;;;25.20;8.07;;;;;;;9.05;100.00;100482.53;5204836;28;20032;-79
2022/12/23 09:09:52;;;;;;;27.67;9.07;;;;;;;9.17;100.00;100484.91;5204859;28;20021;-77
2022/12/23 09:12:23;;;;;;;26.42;8.30;;;;;;;9.13;100.00;100480.88;5203251;28;20022;-77
2022/12/23 09:14:53;;;;;;;26.85;9.05;;;;;;;9.13;100.00;100491.56;5203954;28;20029;-81
2022/12/23 09:17:24;;;;;;;33.15;9.88;;;;;;;9.13;100.00;100499.59;5205116;28;20048;-81
2022/12/23 09:19:54;;;;;;;30.38;10.55;;;;;;;9.18;100.00;100499.94;5211348;28;20108;-80
2022/12/23 09:22:25;;;;;;;37.67;12.15;;;;;;;9.30;100.00;100488.75;5204406;28;20032;-80
2022/12/23 09:24:55;;;;;;;30.85;10.40;;;;;;;9.28;100.00;100484.56;5205195;28;20025;-80
2022/12/23 09:27:26;;;;;;;30.08;10.23;;;;;;;9.29;100.00;100483.59;5203869;28;20560;-80
2022/12/23 09:29:56;;;;;;;27.52;7.95;;;;;;;9.30;100.00;100493.28;5205174;28;20023;-81
2022/12/23 09:32:26;;;;;;;29.48;9.00;;;;;;;9.37;100.00;100488.09;5205023;28;20490;-80
2022/12/23 09:34:57;;;;;;;26.92;9.13;;;;;;;9.38;100.00;100493.25;5205566;28;20029;-80
2022/12/23 09:37:27;;;;;;;25.40;8.05;;;;;;;9.39;100.00;100497.63;5205208;28;20043;-80
2022/12/23 09:39:58;;;;;;;32.33;9.35;;;;;;;9.46;100.00;100495.13;5204311;28;20026;-81
2022/12/23 09:42:45;;;;;;;37.17;8.98;;;;;;;9.47;100.00;100480.72;5204309;28;20033;-81
2022/12/23 09:45:50;;;;;;;24.13;8.30;;;;;;;9.46;100.00;100477.22;5203270;28;20040;-81
2022/12/23 09:48:25;;;;;;;27.45;7.88;;;;;;;9.45;100.00;100477.38;5204300;28;20359;-81
2022/12/23 09:50:56;;;;;;;33.55;7.97;;;;;;;9.39;100.00;100465.50;5204052;28;20100;-81
2022/12/23 09:53:54;;;;;;;32.58;9.07;;;;;;;9.37;100.00;100464.00;5204261;28;20385;-81
2022/12/23 09:56:40;;;;;;;28.48;8.50;;;;;;;9.33;100.00;100450.94;5193671;28;20029;-81
2022/12/23 09:59:28;;;;;;;34.50;7.72;;;;;;;9.34;100.00;100451.78;5203348;28;20057;-81
2022/12/23 10:02:03;;;;;;;27.38;8.15;;;;;;;9.32;100.00;100432.38;5203522;28;20026;-81
2022/12/23 10:05:04;;;;;;;32.60;8.55;;;;;;;9.28;100.00;100418.47;5204541;28;20025;-81
2022/12/23 10:07:54;;;;;;;28.90;8.50;;;;;;;9.32;100.00;100402.91;5170649;28;20038;-81
2022/12/23 10:10:32;;;;;;;37.75;8.68;;;;;;;9.32;100.00;100405.59;5204576;28;20367;-82
2022/12/23 10:13:05;;;;;;;28.83;7.68;;;;;;;9.34;100.00;100400.94;5204130;28;20036;-82
2022/12/23 10:15:41;;;;;;;25.50;7.32;;;;;;;9.34;100.00;100399.09;5203903;28;20060;-81
2022/12/23 10:18:26;;;;;;;30.30;7.07;;;;;;;9.34;100.00;100387.53;5202790;28;20026;-81
2022/12/23 10:21:08;;;;;;;29.02;8.18;;;;;;;9.31;100.00;100379.84;5208744;28;20155;-81
2022/12/23 10:23:43;;;;;;;31.40;7.63;;;;;;;9.31;100.00;100377.16;5203028;28;20361;-81
2022/12/23 10:26:22;;;;;;;26.33;8.73;;;;;;;9.27;100.00;100365.94;5203022;28;20056;-81
2022/12/23 10:29:12;;;;;;;21.33;6.75;;;;;;;9.28;100.00;100356.06;5204166;28;20029;-81
2022/12/23 10:31:57;;;;;;;23.52;6.25;;;;;;;9.26;100.00;100352.75;5188496;28;20405;-81
2022/12/23 10:35:05;;;;;;;24.92;7.32;;;;;;;9.26;100.00;100329.50;5204118;28;20048;-81
2022/12/23 10:37:43;;;;;;;32.10;6.65;;;;;;;9.28;100.00;100316.75;5202588;28;20033;-82
2022/12/23 10:40:21;;;;;;;29.00;6.78;;;;;;;9.31;100.00;100303.03;5198959;28;20026;-81
2022/12/23 10:43:18;;;;;;;20.88;6.07;;;;;;;9.32;100.00;100301.19;5199867;28;20037;-81
2022/12/23 10:46:00;;;;;;;25.30;8.20;;;;;;;9.32;100.00;100303.88;5199949;28;20079;-81
2022/12/23 10:48:58;;;;;;;24.80;7.65;;;;;;;9.28;100.00;100299.88;5197079;28;20386;-81
2022/12/23 10:51:35;;;;;;;29.63;8.57;;;;;;;9.24;100.00;100283.34;5203763;28;20021;-81
2022/12/23 10:54:11;;;;;;;24.73;8.15;;;;;;;9.21;100.00;100270.28;5203319;28;20028;-81
2022/12/23 10:56:43;;;;;;;20.58;7.65;;;;;;;9.20;100.00;100276.66;5203672;28;20028;-81
2022/12/23 10:59:19;;;;;;;19.55;8.13;;;;;;;9.18;100.00;100270.63;5203971;28;20044;-81
2022/12/23 11:01:58;;;;;;;23.77;8.10;;;;;;;9.24;100.00;100261.09;5205832;28;20026;-81
2022/12/23 11:04:35;;;;;;;26.58;8.02;;;;;;;9.26;100.00;100264.41;5208053;28;20426;-81
2022/12/23 11:07:13;;;;;;;41.55;10.27;;;;;;;9.27;100.00;100255.38;5207542;28;20025;-81
2022/12/23 11:09:48;;;;;;;24.38;8.48;;;;;;;9.34;100.00;100243.00;5208019;28;20124;-82
2022/12/23 11:12:24;;;;;;;26.25;8.38;;;;;;;9.33;100.00;100236.78;5207465;28;20633;-82
2022/12/23 11:14:56;;;;;;;20.13;8.38;;;;;;;9.38;100.00;100230.91;5206222;28;20140;-81
2022/12/23 11:17:30;;;;;;;30.88;9.05;;;;;;;9.38;100.00;100224.72;5207966;28;20021;-81
2022/12/23 11:20:14;;;;;;;27.23;9.50;;;;;;;9.38;100.00;100212.16;5213550;28;20048;-81
2022/12/23 11:22:53;;;;;;;35.30;11.85;;;;;;;9.43;100.00;100206.28;5207795;28;20083;-82
2022/12/23 11:25:40;;;;;;;28.42;10.60;;;;;;;9.42;100.00;100192.06;5207378;28;20022;-81
2022/12/23 11:28:18;;;;;;;32.05;10.18;;;;;;;9.48;100.00;100183.34;5206492;28;20075;-81
2022/12/23 11:30:55;;;;;;;29.67;10.38;;;;;;;9.54;100.00;100185.34;5205425;28;20083;-81
2022/12/23 11:33:32;;;;;;;30.88;11.40;;;;;;;9.52;100.00;100179.28;5207068;28;20061;-81
2022/12/23 11:36:16;;;;;;;29.08;10.57;;;;;;;9.54;100.00;100155.88;5207051;28;20021;-81
2022/12/23 11:39:11;;;;;;;24.20;10.25;;;;;;;9.51;100.00;100150.88;5206796;28;20110;-81
2022/12/23 11:41:46;;;;;;;27.10;10.57;;;;;;;9.54;100.00;100153.19;5206450;28;20033;-81
2022/12/23 11:44:19;;;;;;;29.08;11.23;;;;;;;9.51;100.00;100150.03;5207011;28;20018;-81
2022/12/23 11:46:50;;;;;;;29.83;9.90;;;;;;;9.47;100.00;100138.81;5206832;28;20037;-81
2022/12/23 11:49:27;;;;;;;32.53;10.57;;;;;;;9.49;100.00;100120.75;5207258;28;20025;-81
2022/12/23 11:52:03;;;;;;;22.30;9.95;;;;;;;9.46;100.00;100129.13;5205806;28;20025;-81
2022/12/23 11:54:34;;;;;;;26.77;10.45;;;;;;;9.47;100.00;100129.97;5207256;28;20042;-80
2022/12/23 11:57:14;;;;;;;21.13;9.40;;;;;;;9.49;100.00;100127.97;5210750;28;20036;-81
2022/12/23 11:59:50;;;;;;;26.73;10.85;;;;;;;9.52;100.00;100114.22;5210970;28;20021;-81
2022/12/23 12:02:30;;;;;;;28.52;10.15;;;;;;;9.52;100.00;100112.34;5210552;28;20018;-81
2022/12/23 12:05:06;;;;;;;26.42;9.73;;;;;;;9.52;100.00;100108.84;5210952;28;20029;-81
2022/12/23 12:07:42;;;;;;;21.05;9.55;;;;;;;9.47;100.00;100101.34;5210333;28;20056;-81
2022/12/23 12:10:27;;;;;;;16.77;8.77;;;;;;;9.54;100.00;100086.25;5209586;28;20031;-81
2022/12/23 12:13:01;;;;;;;24.88;10.15;;;;;;;9.59;100.00;100085.72;5209987;28;20045;-81